Springdale, Idaho
Current Conditions -  °F | °C
As of 2:53 PM on Thursday 27 Nov 2014 (Local Time) from KBYI Reporting Station
Clear Clear  
Wind Chill: 64°   Ceiling: Unl
Heat Index: 64°   Visibility: 10mi
Dew Point: 32°   Wind: 12mph
Humidity: 30%   Direction: 220°SW
Pressure: 30.11"   Gusts: NA
Location:  42.5011°N, 113.814°W
Report Text: KBYI 272153Z AUTO 22010KT 10SM CLR 18/00 A3011 RMK AO2 SLP176 T01780000
Loading
Personal Weather Stations






























Interactive Weather Map New forecast layout! Learn more

10-Day Weather Forecast

Advertisements
Track Severe Weather on mobile